Share

Perry, FL

9:20 PM EDT on April 23, 2014 (GMT -0400)
Perry (K40J) Elev 43 ft | 30.07 °N, 83.57 °W | Change Station
Active Advisory: Flood Warning

Current weather conditions updated 5 minutes ago

Clear
Clear
66 °F
Feels Like 66 °F
N
4
Wind Variable Wind from SW
Sunrise 6:58 AM
Sunset 8:06 PM
Moon Waning Crescent

Tomorrow is forecast to be nearly the same temperature as today.

Pressure 29.93 in
Visibility 5.0 miles
Clouds Clear
Dew Point 66 °F
Humidity 100%
Rainfall 0.00 in
Snow Depth Not available.
UV 0 out of 16
Pollen 8.20 out of 12
Air Quality Not available.
Flu Activity Sporadic
METAR K40J 240115Z AUTO 22003KT 5SM BR CLR 19/19 A2993 RMK AO2

More Conditions Fewer Conditions

Pressure 29.93 in
Visibility 5.0 miles
Clouds Clear
Dew Point 66 °F
Humidity 100%
Rainfall 0.00 in
Snow Depth Not available.
UV 0 out of 16
Pollen 8.20 out of 12
Air Quality Not available.
Flu Activity Sporadic
METAR K40J 240115Z AUTO 22003KT 5SM BR CLR 19/19 A2993 RMK AO2

More Conditions Fewer Conditions

10-Day Weather Forecast

Almanac

Astronomy

Apr. 23, 2014 Rise Set
Actual Time 6:58 AM EDT 8:06 PM EDT
Civil Twilight 6:34 AM EDT 8:31 PM EDT
Nautical Twilight 6:04 AM EDT 9:01 PM EDT
Astronomical Twilight 5:34 AM EDT 9:31 PM EDT
Moon 3:03 AM EDT (4/23) 2:38 PM EDT (4/23)
Length of Visible Light 13h 57m
Length of Day
13h 07m
Tomorrow will be 1m 39s longer.
Waning Crescent, 31% of the Moon is Illuminated
Today
Waning Crescent
Apr 29
New
May 6
First Quarter
May 14
Full
May 21
Last Quarter

Today's Extremes

State Highs State Lows

Community

  • Nestled In
    Nestled In
  • Stunning Sunrise
    Stunning Sunrise
  • spring flowers
    spring flowers
  • Earth Day Spectrum Ove' Blue
    Earth Day Spectrum Ove' Blue
  • BARN B&W
    BARN B&W

WunderPhotos

Upload Photos

1,704,485 photos uploaded!

Nearby

Snow Depth

Station Depth Elevation
No new snow has been reported.

Coastal Water Temperatures

Place Temperature
Apalachicola, FL 66.0 °F
Panama City, FL 73.9 °F

Earthquake Activity

City Distance Mag. Time & Date
No recent earthquake activity has been reported nearby.
Minimum magnitude displayed is 2.5.

Nearby Weather Stations

Station Location Temp. Dew Point Humidity Wind Precip. Elev Updated Type
MARITIME , Salem, FL 70 °F 67 °F 90% WSW  at  11 mph 0.00 in / hr 6 ft 8:00 PM EDT MADIS

Show More Stations Show Fewer Stations

What do you think?

We're not finished. Please let us know what you like, what you don't like, and what you are still missing.